sensor_id;sensor_type;location;lat;lon;timestamp;P1;durP1;ratioP1;P2;durP2;ratioP2
65373;SDS011;52070;53.760;9.678;2023-05-10T00:01:09;3.80;;;2.30;;
65373;SDS011;52070;53.760;9.678;2023-05-10T00:03:36;7.82;;;2.65;;
65373;SDS011;52070;53.760;9.678;2023-05-10T00:06:03;5.03;;;2.38;;
65373;SDS011;52070;53.760;9.678;2023-05-10T00:08:30;6.25;;;2.30;;
65373;SDS011;52070;53.760;9.678;2023-05-10T00:10:58;9.77;;;2.45;;
65373;SDS011;52070;53.760;9.678;2023-05-10T00:13:25;5.70;;;2.03;;
65373;SDS011;52070;53.760;9.678;2023-05-10T00:15:52;4.68;;;2.42;;
65373;SDS011;52070;53.760;9.678;2023-05-10T00:18:19;4.45;;;2.40;;
65373;SDS011;52070;53.760;9.678;2023-05-10T00:20:46;6.35;;;2.40;;
65373;SDS011;52070;53.760;9.678;2023-05-10T00:23:14;3.28;;;2.40;;
65373;SDS011;52070;53.760;9.678;2023-05-10T00:25:41;8.60;;;2.70;;
65373;SDS011;52070;53.760;9.678;2023-05-10T00:28:09;3.60;;;2.20;;
65373;SDS011;52070;53.760;9.678;2023-05-10T00:30:36;2.80;;;2.20;;
65373;SDS011;52070;53.760;9.678;2023-05-10T00:33:03;6.10;;;2.30;;
65373;SDS011;52070;53.760;9.678;2023-05-10T00:35:30;4.72;;;2.40;;
65373;SDS011;52070;53.760;9.678;2023-05-10T00:37:57;3.63;;;2.28;;
65373;SDS011;52070;53.760;9.678;2023-05-10T00:40:24;7.72;;;2.63;;
65373;SDS011;52070;53.760;9.678;2023-05-10T00:42:51;3.90;;;2.63;;
65373;SDS011;52070;53.760;9.678;2023-05-10T00:45:19;2.75;;;2.33;;
65373;SDS011;52070;53.760;9.678;2023-05-10T00:47:46;5.15;;;2.50;;
65373;SDS011;52070;53.760;9.678;2023-05-10T00:50:14;7.43;;;2.50;;
65373;SDS011;52070;53.760;9.678;2023-05-10T00:52:41;3.70;;;2.50;;
65373;SDS011;52070;53.760;9.678;2023-05-10T00:55:09;5.22;;;2.47;;
65373;SDS011;52070;53.760;9.678;2023-05-10T00:57:38;3.42;;;2.55;;
65373;SDS011;52070;53.760;9.678;2023-05-10T01:00:05;6.63;;;2.60;;
65373;SDS011;52070;53.760;9.678;2023-05-10T01:02:34;4.35;;;2.70;;
65373;SDS011;52070;53.760;9.678;2023-05-10T01:05:01;4.45;;;2.63;;
65373;SDS011;52070;53.760;9.678;2023-05-10T01:07:30;3.80;;;2.50;;
65373;SDS011;52070;53.760;9.678;2023-05-10T01:09:57;5.70;;;2.80;;
65373;SDS011;52070;53.760;9.678;2023-05-10T01:12:25;3.75;;;2.90;;
65373;SDS011;52070;53.760;9.678;2023-05-10T01:14:52;5.70;;;3.03;;
65373;SDS011;52070;53.760;9.678;2023-05-10T01:17:20;4.40;;;2.72;;
65373;SDS011;52070;53.760;9.678;2023-05-10T01:19:50;5.10;;;2.97;;
65373;SDS011;52070;53.760;9.678;2023-05-10T01:22:25;5.13;;;2.70;;
65373;SDS011;52070;53.760;9.678;2023-05-10T01:25:23;5.47;;;3.13;;
65373;SDS011;52070;53.760;9.678;2023-05-10T01:28:08;11.73;;;3.00;;
65373;SDS011;52070;53.760;9.678;2023-05-10T01:30:50;5.90;;;2.70;;
65373;SDS011;52070;53.760;9.678;2023-05-10T01:33:31;4.32;;;2.78;;
65373;SDS011;52070;53.760;9.678;2023-05-10T01:36:07;4.60;;;3.10;;
65373;SDS011;52070;53.760;9.678;2023-05-10T01:38:41;3.15;;;2.70;;
65373;SDS011;52070;53.760;9.678;2023-05-10T01:41:13;5.07;;;2.70;;
65373;SDS011;52070;53.760;9.678;2023-05-10T01:43:46;5.22;;;2.78;;
65373;SDS011;52070;53.760;9.678;2023-05-10T01:46:20;5.88;;;2.92;;
65373;SDS011;52070;53.760;9.678;2023-05-10T01:48:55;5.03;;;2.67;;
65373;SDS011;52070;53.760;9.678;2023-05-10T01:51:26;4.22;;;2.70;;
65373;SDS011;52070;53.760;9.678;2023-05-10T01:53:58;6.20;;;2.80;;
65373;SDS011;52070;53.760;9.678;2023-05-10T01:56:28;6.18;;;2.95;;
65373;SDS011;52070;53.760;9.678;2023-05-10T01:58:57;7.00;;;3.00;;
65373;SDS011;52070;53.760;9.678;2023-05-10T02:01:26;5.95;;;2.78;;
65373;SDS011;52070;53.760;9.678;2023-05-10T02:03:55;5.10;;;2.80;;
65373;SDS011;52070;53.760;9.678;2023-05-10T02:06:25;4.88;;;3.22;;
65373;SDS011;52070;53.760;9.678;2023-05-10T02:08:53;4.45;;;2.92;;
65373;SDS011;52070;53.760;9.678;2023-05-10T02:11:22;6.13;;;2.70;;
65373;SDS011;52070;53.760;9.678;2023-05-10T02:13:50;4.50;;;2.90;;
65373;SDS011;52070;53.760;9.678;2023-05-10T02:16:19;4.22;;;3.20;;
65373;SDS011;52070;53.760;9.678;2023-05-10T02:21:19;6.18;;;3.28;;
65373;SDS011;52070;53.760;9.678;2023-05-10T02:23:48;7.10;;;2.95;;
65373;SDS011;52070;53.760;9.678;2023-05-10T02:26:17;10.48;;;3.00;;
65373;SDS011;52070;53.760;9.678;2023-05-10T02:28:45;11.90;;;3.00;;
65373;SDS011;52070;53.760;9.678;2023-05-10T02:31:13;6.10;;;2.72;;
65373;SDS011;52070;53.760;9.678;2023-05-10T02:33:41;3.65;;;2.88;;
65373;SDS011;52070;53.760;9.678;2023-05-10T02:36:10;6.78;;;2.75;;
65373;SDS011;52070;53.760;9.678;2023-05-10T02:38:40;7.78;;;3.08;;
65373;SDS011;52070;53.760;9.678;2023-05-10T02:41:07;7.50;;;2.83;;
65373;SDS011;52070;53.760;9.678;2023-05-10T02:43:36;7.13;;;3.03;;
65373;SDS011;52070;53.760;9.678;2023-05-10T02:46:06;7.03;;;3.05;;
65373;SDS011;52070;53.760;9.678;2023-05-10T02:48:33;6.07;;;2.83;;
65373;SDS011;52070;53.760;9.678;2023-05-10T02:51:00;7.78;;;3.03;;
65373;SDS011;52070;53.760;9.678;2023-05-10T02:53:33;3.63;;;3.05;;
65373;SDS011;52070;53.760;9.678;2023-05-10T02:56:04;4.60;;;3.03;;
65373;SDS011;52070;53.760;9.678;2023-05-10T02:58:35;8.30;;;4.07;;
65373;SDS011;52070;53.760;9.678;2023-05-10T03:01:02;7.85;;;3.03;;
65373;SDS011;52070;53.760;9.678;2023-05-10T03:03:29;6.05;;;3.40;;
65373;SDS011;52070;53.760;9.678;2023-05-10T03:05:56;5.45;;;3.30;;
65373;SDS011;52070;53.760;9.678;2023-05-10T03:08:24;8.15;;;2.85;;
65373;SDS011;52070;53.760;9.678;2023-05-10T03:10:55;5.35;;;2.90;;
65373;SDS011;52070;53.760;9.678;2023-05-10T03:13:37;5.22;;;3.17;;
65373;SDS011;52070;53.760;9.678;2023-05-10T03:16:12;8.73;;;3.20;;
65373;SDS011;52070;53.760;9.678;2023-05-10T03:18:44;7.43;;;3.30;;
65373;SDS011;52070;53.760;9.678;2023-05-10T03:21:14;6.25;;;3.30;;
65373;SDS011;52070;53.760;9.678;2023-05-10T03:23:46;8.18;;;2.80;;
65373;SDS011;52070;53.760;9.678;2023-05-10T03:26:20;12.07;;;3.30;;
65373;SDS011;52070;53.760;9.678;2023-05-10T03:28:52;4.43;;;3.08;;
65373;SDS011;52070;53.760;9.678;2023-05-10T03:31:19;5.35;;;3.00;;
65373;SDS011;52070;53.760;9.678;2023-05-10T03:33:47;6.07;;;3.30;;
65373;SDS011;52070;53.760;9.678;2023-05-10T03:36:14;5.28;;;3.30;;
65373;SDS011;52070;53.760;9.678;2023-05-10T03:38:41;6.40;;;3.13;;
65373;SDS011;52070;53.760;9.678;2023-05-10T03:41:08;8.23;;;3.33;;
65373;SDS011;52070;53.760;9.678;2023-05-10T03:43:36;4.80;;;3.17;;
65373;SDS011;52070;53.760;9.678;2023-05-10T03:46:04;9.90;;;3.35;;
65373;SDS011;52070;53.760;9.678;2023-05-10T03:48:31;6.72;;;3.42;;
65373;SDS011;52070;53.760;9.678;2023-05-10T03:50:59;7.65;;;3.08;;
65373;SDS011;52070;53.760;9.678;2023-05-10T03:53:26;7.15;;;2.83;;
65373;SDS011;52070;53.760;9.678;2023-05-10T03:55:53;6.97;;;3.25;;
65373;SDS011;52070;53.760;9.678;2023-05-10T03:58:20;4.93;;;2.92;;
65373;SDS011;52070;53.760;9.678;2023-05-10T04:00:48;10.43;;;3.50;;
65373;SDS011;52070;53.760;9.678;2023-05-10T04:03:15;4.22;;;2.90;;
65373;SDS011;52070;53.760;9.678;2023-05-10T04:05:42;8.30;;;3.17;;
65373;SDS011;52070;53.760;9.678;2023-05-10T04:08:09;6.13;;;3.20;;
65373;SDS011;52070;53.760;9.678;2023-05-10T04:10:36;11.75;;;3.58;;
65373;SDS011;52070;53.760;9.678;2023-05-10T04:13:06;6.93;;;3.40;;
65373;SDS011;52070;53.760;9.678;2023-05-10T04:15:33;5.03;;;3.50;;
65373;SDS011;52070;53.760;9.678;2023-05-10T04:18:02;6.13;;;3.30;;
65373;SDS011;52070;53.760;9.678;2023-05-10T04:20:29;9.77;;;3.10;;
65373;SDS011;52070;53.760;9.678;2023-05-10T04:22:58;5.82;;;3.13;;
65373;SDS011;52070;53.760;9.678;2023-05-10T04:25:25;6.20;;;3.20;;
65373;SDS011;52070;53.760;9.678;2023-05-10T04:27:52;6.43;;;3.33;;
65373;SDS011;52070;53.760;9.678;2023-05-10T04:30:19;7.88;;;3.33;;
65373;SDS011;52070;53.760;9.678;2023-05-10T04:32:46;4.43;;;3.25;;
65373;SDS011;52070;53.760;9.678;2023-05-10T04:35:14;5.38;;;3.03;;
65373;SDS011;52070;53.760;9.678;2023-05-10T04:37:41;9.52;;;3.10;;
65373;SDS011;52070;53.760;9.678;2023-05-10T04:40:09;8.73;;;3.50;;
65373;SDS011;52070;53.760;9.678;2023-05-10T04:42:36;6.57;;;3.10;;
65373;SDS011;52070;53.760;9.678;2023-05-10T04:45:06;6.47;;;3.10;;
65373;SDS011;52070;53.760;9.678;2023-05-10T04:47:34;5.03;;;2.88;;
65373;SDS011;52070;53.760;9.678;2023-05-10T04:50:02;10.13;;;3.25;;
65373;SDS011;52070;53.760;9.678;2023-05-10T04:52:31;10.90;;;3.40;;
65373;SDS011;52070;53.760;9.678;2023-05-10T04:54:58;8.63;;;3.97;;
65373;SDS011;52070;53.760;9.678;2023-05-10T04:57:25;5.75;;;3.38;;
65373;SDS011;52070;53.760;9.678;2023-05-10T04:59:52;11.77;;;3.40;;
65373;SDS011;52070;53.760;9.678;2023-05-10T05:02:19;4.97;;;3.28;;
65373;SDS011;52070;53.760;9.678;2023-05-10T05:04:45;8.80;;;3.60;;
65373;SDS011;52070;53.760;9.678;2023-05-10T05:07:12;5.90;;;3.40;;
65373;SDS011;52070;53.760;9.678;2023-05-10T05:09:41;7.53;;;3.00;;
65373;SDS011;52070;53.760;9.678;2023-05-10T05:12:08;7.90;;;3.50;;
65373;SDS011;52070;53.760;9.678;2023-05-10T05:14:39;7.32;;;3.45;;
65373;SDS011;52070;53.760;9.678;2023-05-10T05:17:06;6.30;;;3.28;;
65373;SDS011;52070;53.760;9.678;2023-05-10T05:19:33;6.80;;;3.15;;
65373;SDS011;52070;53.760;9.678;2023-05-10T05:22:01;4.00;;;3.05;;
65373;SDS011;52070;53.760;9.678;2023-05-10T05:24:28;11.32;;;3.50;;
65373;SDS011;52070;53.760;9.678;2023-05-10T05:26:56;5.57;;;3.58;;
65373;SDS011;52070;53.760;9.678;2023-05-10T05:29:23;4.68;;;3.13;;
65373;SDS011;52070;53.760;9.678;2023-05-10T05:31:50;6.32;;;3.35;;
65373;SDS011;52070;53.760;9.678;2023-05-10T05:34:17;4.78;;;3.50;;
65373;SDS011;52070;53.760;9.678;2023-05-10T05:36:45;8.93;;;3.80;;
65373;SDS011;52070;53.760;9.678;2023-05-10T05:39:12;5.95;;;3.45;;
65373;SDS011;52070;53.760;9.678;2023-05-10T05:41:39;4.82;;;3.63;;
65373;SDS011;52070;53.760;9.678;2023-05-10T05:44:08;6.82;;;3.40;;
65373;SDS011;52070;53.760;9.678;2023-05-10T05:46:35;6.10;;;3.72;;
65373;SDS011;52070;53.760;9.678;2023-05-10T05:49:02;5.70;;;3.75;;
65373;SDS011;52070;53.760;9.678;2023-05-10T05:51:29;7.53;;;3.65;;
65373;SDS011;52070;53.760;9.678;2023-05-10T05:53:56;7.10;;;3.80;;
65373;SDS011;52070;53.760;9.678;2023-05-10T05:56:24;6.20;;;4.10;;
65373;SDS011;52070;53.760;9.678;2023-05-10T05:58:51;7.70;;;3.65;;
65373;SDS011;52070;53.760;9.678;2023-05-10T06:01:19;11.52;;;3.90;;
65373;SDS011;52070;53.760;9.678;2023-05-10T06:03:46;9.40;;;4.20;;
65373;SDS011;52070;53.760;9.678;2023-05-10T06:06:13;7.57;;;4.05;;
65373;SDS011;52070;53.760;9.678;2023-05-10T06:08:40;10.00;;;4.10;;
65373;SDS011;52070;53.760;9.678;2023-05-10T06:11:07;5.40;;;3.78;;
65373;SDS011;52070;53.760;9.678;2023-05-10T06:13:34;8.23;;;3.75;;
65373;SDS011;52070;53.760;9.678;2023-05-10T06:16:01;6.05;;;3.80;;
65373;SDS011;52070;53.760;9.678;2023-05-10T06:18:30;8.15;;;3.38;;
65373;SDS011;52070;53.760;9.678;2023-05-10T06:20:57;6.38;;;3.38;;
65373;SDS011;52070;53.760;9.678;2023-05-10T06:23:24;6.25;;;3.22;;
65373;SDS011;52070;53.760;9.678;2023-05-10T06:25:51;6.63;;;3.65;;
65373;SDS011;52070;53.760;9.678;2023-05-10T06:28:18;4.60;;;3.35;;
65373;SDS011;52070;53.760;9.678;2023-05-10T06:30:45;8.07;;;3.42;;
65373;SDS011;52070;53.760;9.678;2023-05-10T06:33:13;4.93;;;3.15;;
65373;SDS011;52070;53.760;9.678;2023-05-10T06:35:42;6.95;;;3.15;;
65373;SDS011;52070;53.760;9.678;2023-05-10T06:38:09;4.05;;;2.95;;
65373;SDS011;52070;53.760;9.678;2023-05-10T06:40:36;10.02;;;3.42;;
65373;SDS011;52070;53.760;9.678;2023-05-10T06:43:03;5.68;;;3.33;;
65373;SDS011;52070;53.760;9.678;2023-05-10T06:45:31;5.93;;;3.33;;
65373;SDS011;52070;53.760;9.678;2023-05-10T06:47:58;7.15;;;3.53;;
65373;SDS011;52070;53.760;9.678;2023-05-10T06:50:25;7.95;;;3.50;;
65373;SDS011;52070;53.760;9.678;2023-05-10T06:52:53;8.25;;;3.70;;
65373;SDS011;52070;53.760;9.678;2023-05-10T06:55:20;4.25;;;3.40;;
65373;SDS011;52070;53.760;9.678;2023-05-10T06:57:47;11.35;;;3.78;;
65373;SDS011;52070;53.760;9.678;2023-05-10T07:00:16;8.82;;;3.30;;
65373;SDS011;52070;53.760;9.678;2023-05-10T07:02:44;6.93;;;3.60;;
65373;SDS011;52070;53.760;9.678;2023-05-10T07:05:11;7.55;;;3.25;;
65373;SDS011;52070;53.760;9.678;2023-05-10T07:07:38;7.15;;;3.70;;
65373;SDS011;52070;53.760;9.678;2023-05-10T07:10:06;4.32;;;3.20;;
65373;SDS011;52070;53.760;9.678;2023-05-10T07:12:34;6.65;;;3.53;;
65373;SDS011;52070;53.760;9.678;2023-05-10T07:15:01;6.97;;;3.15;;
65373;SDS011;52070;53.760;9.678;2023-05-10T07:17:28;10.02;;;3.15;;
65373;SDS011;52070;53.760;9.678;2023-05-10T07:19:55;9.30;;;3.35;;
65373;SDS011;52070;53.760;9.678;2023-05-10T07:22:22;8.98;;;3.72;;
65373;SDS011;52070;53.760;9.678;2023-05-10T07:24:49;7.93;;;3.03;;
65373;SDS011;52070;53.760;9.678;2023-05-10T07:27:17;4.93;;;3.40;;
65373;SDS011;52070;53.760;9.678;2023-05-10T07:29:44;6.50;;;3.45;;
65373;SDS011;52070;53.760;9.678;2023-05-10T07:32:11;6.50;;;3.28;;
65373;SDS011;52070;53.760;9.678;2023-05-10T07:34:38;6.78;;;3.60;;
65373;SDS011;52070;53.760;9.678;2023-05-10T07:37:05;7.40;;;3.35;;
65373;SDS011;52070;53.760;9.678;2023-05-10T07:39:32;6.35;;;3.70;;
65373;SDS011;52070;53.760;9.678;2023-05-10T07:41:59;7.20;;;3.05;;
65373;SDS011;52070;53.760;9.678;2023-05-10T07:44:28;6.35;;;3.30;;
65373;SDS011;52070;53.760;9.678;2023-05-10T07:46:55;5.00;;;3.25;;
65373;SDS011;52070;53.760;9.678;2023-05-10T07:49:22;6.78;;;3.33;;
65373;SDS011;52070;53.760;9.678;2023-05-10T07:51:50;5.70;;;3.30;;
65373;SDS011;52070;53.760;9.678;2023-05-10T07:54:16;9.60;;;3.50;;
65373;SDS011;52070;53.760;9.678;2023-05-10T07:56:43;9.13;;;3.72;;
65373;SDS011;52070;53.760;9.678;2023-05-10T07:59:14;10.48;;;3.40;;
65373;SDS011;52070;53.760;9.678;2023-05-10T08:01:43;8.52;;;3.40;;
65373;SDS011;52070;53.760;9.678;2023-05-10T08:04:11;7.13;;;3.38;;
65373;SDS011;52070;53.760;9.678;2023-05-10T08:06:38;6.93;;;3.22;;
65373;SDS011;52070;53.760;9.678;2023-05-10T08:09:06;6.90;;;3.33;;
65373;SDS011;52070;53.760;9.678;2023-05-10T08:11:32;8.40;;;3.53;;
65373;SDS011;52070;53.760;9.678;2023-05-10T08:13:59;5.97;;;3.30;;
65373;SDS011;52070;53.760;9.678;2023-05-10T08:16:26;11.45;;;3.50;;
65373;SDS011;52070;53.760;9.678;2023-05-10T08:18:55;5.63;;;3.42;;
65373;SDS011;52070;53.760;9.678;2023-05-10T08:21:22;8.20;;;3.40;;
65373;SDS011;52070;53.760;9.678;2023-05-10T08:23:49;4.63;;;3.58;;
65373;SDS011;52070;53.760;9.678;2023-05-10T08:26:16;13.02;;;3.70;;
65373;SDS011;52070;53.760;9.678;2023-05-10T08:28:44;9.52;;;3.42;;
65373;SDS011;52070;53.760;9.678;2023-05-10T08:31:11;11.73;;;4.18;;
65373;SDS011;52070;53.760;9.678;2023-05-10T08:33:38;5.07;;;3.33;;
65373;SDS011;52070;53.760;9.678;2023-05-10T08:36:07;9.23;;;3.95;;
65373;SDS011;52070;53.760;9.678;2023-05-10T08:38:34;6.85;;;3.47;;
65373;SDS011;52070;53.760;9.678;2023-05-10T08:41:01;8.93;;;4.07;;
65373;SDS011;52070;53.760;9.678;2023-05-10T08:43:28;8.82;;;4.18;;
65373;SDS011;52070;53.760;9.678;2023-05-10T08:45:56;7.18;;;3.90;;
65373;SDS011;52070;53.760;9.678;2023-05-10T08:48:26;6.93;;;4.10;;
65373;SDS011;52070;53.760;9.678;2023-05-10T08:50:55;6.90;;;4.03;;
65373;SDS011;52070;53.760;9.678;2023-05-10T08:53:26;5.20;;;3.60;;
65373;SDS011;52070;53.760;9.678;2023-05-10T08:55:55;8.70;;;3.78;;
65373;SDS011;52070;53.760;9.678;2023-05-10T08:58:22;10.68;;;3.90;;
65373;SDS011;52070;53.760;9.678;2023-05-10T09:00:49;9.65;;;4.05;;
65373;SDS011;52070;53.760;9.678;2023-05-10T09:03:17;7.13;;;3.80;;
65373;SDS011;52070;53.760;9.678;2023-05-10T09:05:44;6.78;;;3.97;;
65373;SDS011;52070;53.760;9.678;2023-05-10T09:08:11;7.97;;;4.75;;
65373;SDS011;52070;53.760;9.678;2023-05-10T09:10:44;8.30;;;4.17;;
65373;SDS011;52070;53.760;9.678;2023-05-10T09:13:12;12.75;;;4.75;;
65373;SDS011;52070;53.760;9.678;2023-05-10T09:15:41;7.88;;;4.38;;
65373;SDS011;52070;53.760;9.678;2023-05-10T09:18:10;8.15;;;4.40;;
65373;SDS011;52070;53.760;9.678;2023-05-10T09:20:37;9.52;;;4.68;;
65373;SDS011;52070;53.760;9.678;2023-05-10T09:23:04;5.28;;;4.53;;
65373;SDS011;52070;53.760;9.678;2023-05-10T09:25:31;10.90;;;4.80;;
65373;SDS011;52070;53.760;9.678;2023-05-10T09:28:00;6.22;;;4.30;;
65373;SDS011;52070;53.760;9.678;2023-05-10T09:30:27;11.15;;;4.72;;
65373;SDS011;52070;53.760;9.678;2023-05-10T09:32:55;6.72;;;4.78;;
65373;SDS011;52070;53.760;9.678;2023-05-10T09:35:24;9.32;;;4.75;;
65373;SDS011;52070;53.760;9.678;2023-05-10T09:37:53;7.80;;;5.60;;
65373;SDS011;52070;53.760;9.678;2023-05-10T09:40:21;9.05;;;5.18;;
65373;SDS011;52070;53.760;9.678;2023-05-10T09:42:52;7.38;;;4.72;;
65373;SDS011;52070;53.760;9.678;2023-05-10T09:45:22;9.63;;;4.80;;
65373;SDS011;52070;53.760;9.678;2023-05-10T09:47:50;5.78;;;4.65;;
65373;SDS011;52070;53.760;9.678;2023-05-10T09:50:17;12.40;;;5.00;;
65373;SDS011;52070;53.760;9.678;2023-05-10T09:52:46;6.10;;;4.93;;
65373;SDS011;52070;53.760;9.678;2023-05-10T09:55:15;7.47;;;4.85;;
65373;SDS011;52070;53.760;9.678;2023-05-10T09:57:44;12.73;;;5.28;;
65373;SDS011;52070;53.760;9.678;2023-05-10T10:00:15;9.32;;;5.50;;
65373;SDS011;52070;53.760;9.678;2023-05-10T10:02:46;9.13;;;5.60;;
65373;SDS011;52070;53.760;9.678;2023-05-10T10:05:14;9.73;;;5.90;;
65373;SDS011;52070;53.760;9.678;2023-05-10T10:07:42;9.13;;;6.18;;
65373;SDS011;52070;53.760;9.678;2023-05-10T10:10:09;7.80;;;5.53;;
65373;SDS011;52070;53.760;9.678;2023-05-10T10:12:38;10.48;;;6.25;;
65373;SDS011;52070;53.760;9.678;2023-05-10T10:15:08;10.15;;;6.13;;
65373;SDS011;52070;53.760;9.678;2023-05-10T10:17:35;7.38;;;5.57;;
65373;SDS011;52070;53.760;9.678;2023-05-10T10:20:06;10.35;;;6.28;;
65373;SDS011;52070;53.760;9.678;2023-05-10T10:22:34;10.75;;;5.97;;
65373;SDS011;52070;53.760;9.678;2023-05-10T10:25:01;7.88;;;6.45;;
65373;SDS011;52070;53.760;9.678;2023-05-10T10:27:32;7.88;;;6.38;;
65373;SDS011;52070;53.760;9.678;2023-05-10T10:30:09;11.32;;;7.00;;
65373;SDS011;52070;53.760;9.678;2023-05-10T10:32:49;8.18;;;6.38;;
65373;SDS011;52070;53.760;9.678;2023-05-10T10:35:40;10.77;;;7.25;;
65373;SDS011;52070;53.760;9.678;2023-05-10T10:38:09;11.57;;;7.40;;
65373;SDS011;52070;53.760;9.678;2023-05-10T10:40:39;9.85;;;7.38;;
65373;SDS011;52070;53.760;9.678;2023-05-10T10:43:21;12.73;;;7.32;;
65373;SDS011;52070;53.760;9.678;2023-05-10T10:48:40;10.93;;;7.55;;
65373;SDS011;52070;53.760;9.678;2023-05-10T10:51:14;11.13;;;7.97;;
65373;SDS011;52070;53.760;9.678;2023-05-10T10:53:41;10.65;;;7.72;;
65373;SDS011;52070;53.760;9.678;2023-05-10T10:56:09;11.35;;;8.02;;
65373;SDS011;52070;53.760;9.678;2023-05-10T10:58:39;12.02;;;9.02;;
65373;SDS011;52070;53.760;9.678;2023-05-10T11:01:13;12.02;;;9.30;;
65373;SDS011;52070;53.760;9.678;2023-05-10T11:03:41;12.30;;;8.55;;
65373;SDS011;52070;53.760;9.678;2023-05-10T11:08:57;12.88;;;8.75;;
65373;SDS011;52070;53.760;9.678;2023-05-10T11:11:24;14.00;;;9.63;;
65373;SDS011;52070;53.760;9.678;2023-05-10T11:13:51;13.57;;;8.77;;
65373;SDS011;52070;53.760;9.678;2023-05-10T11:16:18;13.00;;;7.78;;
65373;SDS011;52070;53.760;9.678;2023-05-10T11:18:53;10.98;;;7.80;;
65373;SDS011;52070;53.760;9.678;2023-05-10T11:21:23;11.05;;;8.60;;
65373;SDS011;52070;53.760;9.678;2023-05-10T11:23:52;10.52;;;7.97;;
65373;SDS011;52070;53.760;9.678;2023-05-10T11:26:22;12.73;;;8.95;;
65373;SDS011;52070;53.760;9.678;2023-05-10T11:28:52;12.05;;;9.00;;
65373;SDS011;52070;53.760;9.678;2023-05-10T11:31:21;11.50;;;8.90;;
65373;SDS011;52070;53.760;9.678;2023-05-10T11:33:49;14.98;;;9.00;;
65373;SDS011;52070;53.760;9.678;2023-05-10T11:36:18;12.27;;;9.23;;
65373;SDS011;52070;53.760;9.678;2023-05-10T11:38:45;14.82;;;9.55;;
65373;SDS011;52070;53.760;9.678;2023-05-10T11:41:15;15.40;;;9.55;;
65373;SDS011;52070;53.760;9.678;2023-05-10T11:43:45;17.05;;;10.85;;
65373;SDS011;52070;53.760;9.678;2023-05-10T11:46:14;17.20;;;10.60;;
65373;SDS011;52070;53.760;9.678;2023-05-10T11:48:42;15.55;;;10.70;;
65373;SDS011;52070;53.760;9.678;2023-05-10T11:51:10;15.15;;;10.88;;
65373;SDS011;52070;53.760;9.678;2023-05-10T11:53:37;15.20;;;10.57;;
65373;SDS011;52070;53.760;9.678;2023-05-10T11:56:12;15.77;;;10.15;;
65373;SDS011;52070;53.760;9.678;2023-05-10T11:58:40;16.85;;;9.65;;
65373;SDS011;52070;53.760;9.678;2023-05-10T12:01:08;19.77;;;10.13;;
65373;SDS011;52070;53.760;9.678;2023-05-10T12:03:36;13.57;;;9.48;;
65373;SDS011;52070;53.760;9.678;2023-05-10T12:06:04;14.00;;;8.93;;
65373;SDS011;52070;53.760;9.678;2023-05-10T12:08:31;13.05;;;8.57;;
65373;SDS011;52070;53.760;9.678;2023-05-10T12:11:05;12.00;;;8.70;;
65373;SDS011;52070;53.760;9.678;2023-05-10T12:13:36;12.13;;;8.93;;
65373;SDS011;52070;53.760;9.678;2023-05-10T12:16:12;15.70;;;9.27;;
65373;SDS011;52070;53.760;9.678;2023-05-10T12:18:39;13.38;;;9.80;;
65373;SDS011;52070;53.760;9.678;2023-05-10T12:21:07;13.10;;;9.13;;
65373;SDS011;52070;53.760;9.678;2023-05-10T12:23:36;12.35;;;9.32;;
65373;SDS011;52070;53.760;9.678;2023-05-10T12:26:03;16.38;;;9.25;;
65373;SDS011;52070;53.760;9.678;2023-05-10T12:28:30;11.30;;;8.23;;
65373;SDS011;52070;53.760;9.678;2023-05-10T12:30:59;10.45;;;7.88;;
65373;SDS011;52070;53.760;9.678;2023-05-10T12:33:27;9.65;;;7.30;;
65373;SDS011;52070;53.760;9.678;2023-05-10T12:36:02;11.25;;;8.10;;
65373;SDS011;52070;53.760;9.678;2023-05-10T12:38:29;10.73;;;7.82;;
65373;SDS011;52070;53.760;9.678;2023-05-10T12:40:59;9.25;;;7.30;;
65373;SDS011;52070;53.760;9.678;2023-05-10T12:43:28;11.38;;;8.07;;
65373;SDS011;52070;53.760;9.678;2023-05-10T12:45:55;11.32;;;8.32;;
65373;SDS011;52070;53.760;9.678;2023-05-10T12:48:23;11.30;;;7.28;;
65373;SDS011;52070;53.760;9.678;2023-05-10T12:50:51;10.30;;;7.30;;
65373;SDS011;52070;53.760;9.678;2023-05-10T12:53:18;9.48;;;7.55;;
65373;SDS011;52070;53.760;9.678;2023-05-10T12:55:45;9.68;;;7.28;;
65373;SDS011;52070;53.760;9.678;2023-05-10T12:58:12;9.68;;;7.82;;
65373;SDS011;52070;53.760;9.678;2023-05-10T13:00:39;7.32;;;6.50;;
65373;SDS011;52070;53.760;9.678;2023-05-10T13:03:06;8.93;;;6.97;;
65373;SDS011;52070;53.760;9.678;2023-05-10T13:05:34;9.02;;;6.97;;
65373;SDS011;52070;53.760;9.678;2023-05-10T13:08:01;9.13;;;6.95;;
65373;SDS011;52070;53.760;9.678;2023-05-10T13:10:28;8.30;;;6.28;;
65373;SDS011;52070;53.760;9.678;2023-05-10T13:12:55;7.25;;;6.30;;
65373;SDS011;52070;53.760;9.678;2023-05-10T13:15:22;8.13;;;6.75;;
65373;SDS011;52070;53.760;9.678;2023-05-10T13:17:49;6.40;;;5.80;;
65373;SDS011;52070;53.760;9.678;2023-05-10T13:20:16;7.72;;;5.95;;
65373;SDS011;52070;53.760;9.678;2023-05-10T13:22:45;10.23;;;6.00;;
65373;SDS011;52070;53.760;9.678;2023-05-10T13:25:12;6.93;;;5.78;;
65373;SDS011;52070;53.760;9.678;2023-05-10T13:27:39;7.15;;;6.32;;
65373;SDS011;52070;53.760;9.678;2023-05-10T13:30:07;5.93;;;5.32;;
65373;SDS011;52070;53.760;9.678;2023-05-10T13:32:34;7.75;;;5.80;;
65373;SDS011;52070;53.760;9.678;2023-05-10T13:35:02;7.45;;;6.20;;
65373;SDS011;52070;53.760;9.678;2023-05-10T13:37:30;7.13;;;6.43;;
65373;SDS011;52070;53.760;9.678;2023-05-10T13:39:58;8.57;;;5.97;;
65373;SDS011;52070;53.760;9.678;2023-05-10T13:42:25;10.85;;;6.60;;
65373;SDS011;52070;53.760;9.678;2023-05-10T13:44:52;9.10;;;6.40;;
65373;SDS011;52070;53.760;9.678;2023-05-10T13:47:19;7.00;;;6.30;;
65373;SDS011;52070;53.760;9.678;2023-05-10T13:49:47;8.02;;;7.22;;
65373;SDS011;52070;53.760;9.678;2023-05-10T13:52:14;7.82;;;6.65;;
65373;SDS011;52070;53.760;9.678;2023-05-10T13:54:41;7.18;;;6.25;;
65373;SDS011;52070;53.760;9.678;2023-05-10T13:57:09;7.10;;;6.35;;
65373;SDS011;52070;53.760;9.678;2023-05-10T13:59:39;8.18;;;7.18;;
65373;SDS011;52070;53.760;9.678;2023-05-10T14:02:06;8.35;;;7.00;;
65373;SDS011;52070;53.760;9.678;2023-05-10T14:04:33;7.82;;;6.63;;
65373;SDS011;52070;53.760;9.678;2023-05-10T14:07:00;8.35;;;6.50;;
65373;SDS011;52070;53.760;9.678;2023-05-10T14:09:27;9.30;;;7.72;;
65373;SDS011;52070;53.760;9.678;2023-05-10T14:11:55;8.60;;;7.68;;
65373;SDS011;52070;53.760;9.678;2023-05-10T14:14:24;8.88;;;7.07;;
65373;SDS011;52070;53.760;9.678;2023-05-10T14:16:51;8.50;;;7.43;;
65373;SDS011;52070;53.760;9.678;2023-05-10T14:19:18;8.43;;;7.53;;
65373;SDS011;52070;53.760;9.678;2023-05-10T14:21:45;8.57;;;7.25;;
65373;SDS011;52070;53.760;9.678;2023-05-10T14:24:12;8.70;;;7.63;;
65373;SDS011;52070;53.760;9.678;2023-05-10T14:26:39;11.73;;;8.27;;
65373;SDS011;52070;53.760;9.678;2023-05-10T14:29:06;8.40;;;7.50;;
65373;SDS011;52070;53.760;9.678;2023-05-10T14:31:34;10.07;;;7.38;;
65373;SDS011;52070;53.760;9.678;2023-05-10T14:34:01;10.70;;;8.15;;
65373;SDS011;52070;53.760;9.678;2023-05-10T14:36:28;10.55;;;8.40;;
65373;SDS011;52070;53.760;9.678;2023-05-10T14:38:55;10.38;;;8.45;;
65373;SDS011;52070;53.760;9.678;2023-05-10T14:41:22;9.02;;;7.82;;
65373;SDS011;52070;53.760;9.678;2023-05-10T14:43:50;9.30;;;8.10;;
65373;SDS011;52070;53.760;9.678;2023-05-10T14:46:17;9.55;;;8.18;;
65373;SDS011;52070;53.760;9.678;2023-05-10T14:48:45;8.52;;;7.68;;
65373;SDS011;52070;53.760;9.678;2023-05-10T14:51:12;9.38;;;8.07;;
65373;SDS011;52070;53.760;9.678;2023-05-10T14:53:39;8.30;;;7.18;;
65373;SDS011;52070;53.760;9.678;2023-05-10T14:56:06;10.20;;;7.57;;
65373;SDS011;52070;53.760;9.678;2023-05-10T14:58:33;9.10;;;7.82;;